createdAt,value
2022-12-13T00:01:16.037Z,20.27
2022-12-13T00:04:06.313Z,21.15
2022-12-13T00:06:54.139Z,21.73
2022-12-13T00:09:42.620Z,22.08
2022-12-13T00:12:29.006Z,22.52
2022-12-13T00:15:15.897Z,21.65
2022-12-13T00:18:02.166Z,21.83
2022-12-13T00:20:48.480Z,21.17
2022-12-13T00:23:34.901Z,20.63
2022-12-13T00:26:23.946Z,19.17
2022-12-13T00:29:12.102Z,20.33
2022-12-13T00:32:01.046Z,20.88
2022-12-13T00:34:48.202Z,20.40
2022-12-13T00:37:34.284Z,20.25
2022-12-13T00:40:21.285Z,20.02
2022-12-13T00:43:07.548Z,22.38
2022-12-13T00:45:53.545Z,18.52
2022-12-13T00:48:39.959Z,19.92
2022-12-13T00:51:28.721Z,19.98
2022-12-13T00:54:17.031Z,20.58
2022-12-13T00:57:03.352Z,21.45
2022-12-13T00:59:50.594Z,21.70
2022-12-13T01:02:36.648Z,21.85
2022-12-13T01:05:40.010Z,20.77
2022-12-13T01:08:29.128Z,20.15
2022-12-13T01:11:18.821Z,20.20
2022-12-13T01:14:05.140Z,21.77
2022-12-13T01:16:51.334Z,20.42
2022-12-13T01:19:37.729Z,20.55
2022-12-13T01:22:26.524Z,20.60
2022-12-13T01:25:12.930Z,20.27
2022-12-13T01:28:02.233Z,20.48
2022-12-13T01:31:02.944Z,20.80
2022-12-13T01:33:49.418Z,20.50
2022-12-13T01:36:38.184Z,21.10
2022-12-13T01:39:26.309Z,21.42
2022-12-13T01:42:14.465Z,21.40
2022-12-13T01:45:30.894Z,20.73
2022-12-13T01:48:23.458Z,20.73
2022-12-13T01:51:12.542Z,22.77
2022-12-13T01:54:01.126Z,21.98
2022-12-13T01:56:52.687Z,20.83
2022-12-13T01:59:48.193Z,21.20
2022-12-13T02:02:37.349Z,20.40
2022-12-13T02:05:36.398Z,20.98
2022-12-13T02:08:23.698Z,19.88
2022-12-13T02:11:10.149Z,20.10
2022-12-13T02:13:57.702Z,21.15
2022-12-13T02:16:46.843Z,20.98
2022-12-13T02:20:13.204Z,21.85
2022-12-13T02:23:35.714Z,21.02
2022-12-13T02:26:47.734Z,21.90
2022-12-13T02:30:01.931Z,21.52
2022-12-13T02:33:22.130Z,20.20
2022-12-13T02:36:36.228Z,19.27
2022-12-13T02:39:44.340Z,21.20
2022-12-13T02:42:50.780Z,20.45
2022-12-13T02:45:47.866Z,20.15
2022-12-13T02:48:38.726Z,20.67
2022-12-13T02:51:26.818Z,18.08
2022-12-13T02:54:12.942Z,19.92
2022-12-13T02:57:00.613Z,21.55
2022-12-13T02:59:46.868Z,20.92
2022-12-13T03:02:54.249Z,18.33
2022-12-13T03:06:13.757Z,20.77
2022-12-13T03:09:39.472Z,18.17
2022-12-13T03:13:00.198Z,18.15
2022-12-13T03:16:03.323Z,19.60
2022-12-13T03:18:52.215Z,20.23
2022-12-13T03:21:48.463Z,18.20
2022-12-13T03:24:34.894Z,20.92
2022-12-13T03:27:20.839Z,17.80
2022-12-13T03:30:07.465Z,15.98
2022-12-13T03:32:53.677Z,17.27
2022-12-13T03:35:44.836Z,15.50
2022-12-13T03:38:32.567Z,16.38
2022-12-13T03:41:22.927Z,16.05
2022-12-13T03:44:09.363Z,16.80
2022-12-13T03:46:55.247Z,16.42
2022-12-13T03:49:46.814Z,17.48
2022-12-13T03:52:40.540Z,17.13
2022-12-13T03:55:27.059Z,16.35
2022-12-13T03:58:13.219Z,15.40
2022-12-13T04:00:59.548Z,15.98
2022-12-13T04:03:47.612Z,16.40
2022-12-13T04:06:33.682Z,16.77
2022-12-13T04:09:19.680Z,15.52
2022-12-13T04:12:24.365Z,15.98
2022-12-13T04:15:10.550Z,13.70
2022-12-13T04:17:56.633Z,14.00
2022-12-13T04:20:42.903Z,16.70
2022-12-13T04:23:29.244Z,15.30
2022-12-13T04:26:15.140Z,14.50
2022-12-13T04:29:01.122Z,13.35
2022-12-13T04:31:50.141Z,16.70
2022-12-13T04:34:37.746Z,14.90
2022-12-13T04:37:24.171Z,16.73
2022-12-13T04:40:10.923Z,14.43
2022-12-13T04:42:57.476Z,12.95
2022-12-13T04:45:43.671Z,15.00
2022-12-13T04:48:31.384Z,15.70
2022-12-13T04:51:17.757Z,13.30
2022-12-13T04:54:13.061Z,15.27
2022-12-13T04:57:11.633Z,14.80
2022-12-13T04:59:58.486Z,17.13
2022-12-13T05:02:44.885Z,13.82
2022-12-13T05:05:31.235Z,15.82
2022-12-13T05:08:17.328Z,15.00
2022-12-13T05:11:04.581Z,16.33
2022-12-13T05:13:59.480Z,14.10
2022-12-13T05:16:45.548Z,16.55
2022-12-13T05:19:32.014Z,17.10
2022-12-13T05:22:20.742Z,15.95
2022-12-13T05:25:07.674Z,16.42
2022-12-13T05:27:57.096Z,14.60
2022-12-13T05:30:44.113Z,16.23
2022-12-13T05:33:30.076Z,17.02
2022-12-13T05:36:16.424Z,16.27
2022-12-13T05:39:02.829Z,15.48
2022-12-13T05:41:48.896Z,16.48
2022-12-13T05:44:35.752Z,16.20
2022-12-13T05:47:21.959Z,14.98
2022-12-13T05:50:08.139Z,16.98
2022-12-13T05:52:54.353Z,16.73
2022-12-13T05:55:40.306Z,13.48
2022-12-13T05:58:26.410Z,16.05
2022-12-13T06:01:22.545Z,13.88
2022-12-13T06:04:08.624Z,14.35
2022-12-13T06:06:55.045Z,14.38
2022-12-13T06:09:44.441Z,14.10
2022-12-13T06:12:31.785Z,13.30
2022-12-13T06:15:21.867Z,13.70
2022-12-13T06:18:09.050Z,14.15
2022-12-13T06:21:00.211Z,15.30
2022-12-13T06:23:46.558Z,13.57
2022-12-13T06:26:32.474Z,12.38
2022-12-13T06:29:22.753Z,13.75
2022-12-13T06:32:11.501Z,12.07
2022-12-13T06:34:57.562Z,13.35
2022-12-13T06:37:43.517Z,13.18
2022-12-13T06:40:33.759Z,14.93
2022-12-13T06:43:21.304Z,13.57
2022-12-13T06:46:07.524Z,13.50
2022-12-13T06:48:55.422Z,12.48
2022-12-13T06:51:41.574Z,11.85
2022-12-13T06:54:28.038Z,13.48
2022-12-13T06:57:20.247Z,14.27
2022-12-13T07:00:07.018Z,14.45
2022-12-13T07:02:56.013Z,14.20
2022-12-13T07:05:43.135Z,13.07
2022-12-13T07:08:29.973Z,13.60
2022-12-13T07:11:25.507Z,13.77
2022-12-13T07:14:11.416Z,12.40
2022-12-13T07:17:03.452Z,12.20
2022-12-13T07:19:50.015Z,14.05
2022-12-13T07:22:43.012Z,13.48
2022-12-13T07:25:33.700Z,12.57
2022-12-13T07:28:21.890Z,13.43
2022-12-13T07:31:12.640Z,14.15
2022-12-13T07:33:59.043Z,13.68
2022-12-13T07:36:45.061Z,13.88
2022-12-13T07:39:32.298Z,14.10
2022-12-13T07:42:18.226Z,14.50
2022-12-13T07:45:07.768Z,14.70
2022-12-13T07:47:56.902Z,15.48
2022-12-13T07:50:43.256Z,13.52
2022-12-13T07:53:29.284Z,13.70
2022-12-13T07:56:20.405Z,16.58
2022-12-13T07:59:06.337Z,14.25
2022-12-13T08:01:52.791Z,17.08
2022-12-13T08:04:39.111Z,17.50
2022-12-13T08:07:25.278Z,19.02
2022-12-13T08:10:11.101Z,17.13
2022-12-13T08:12:57.863Z,17.95
2022-12-13T08:15:44.080Z,16.85
2022-12-13T08:18:30.694Z,18.02
2022-12-13T08:21:52.293Z,16.08
2022-12-13T08:24:28.415Z,17.73
2022-12-13T08:27:15.203Z,17.40
2022-12-13T08:30:04.289Z,16.48
2022-12-13T08:32:51.240Z,19.08
2022-12-13T08:35:37.450Z,15.55
2022-12-13T08:38:23.845Z,18.33
2022-12-13T08:41:10.592Z,15.40
2022-12-13T08:43:58.332Z,18.75
2022-12-13T08:46:46.714Z,18.55
2022-12-13T08:49:32.783Z,17.27
2022-12-13T08:52:20.495Z,17.20
2022-12-13T08:55:09.909Z,15.55
2022-12-13T08:57:55.832Z,16.33
2022-12-13T09:00:42.971Z,16.00
2022-12-13T09:03:29.301Z,15.65
2022-12-13T09:06:16.903Z,14.85
2022-12-13T09:09:03.664Z,15.07
2022-12-13T09:11:52.259Z,14.35
2022-12-13T09:14:46.795Z,14.93
2022-12-13T09:17:36.982Z,15.35
2022-12-13T09:20:29.543Z,14.80
2022-12-13T09:23:23.605Z,14.30
2022-12-13T09:26:15.523Z,14.75
2022-12-13T09:29:10.942Z,14.48
2022-12-13T09:31:57.940Z,15.73
2022-12-13T09:34:46.263Z,14.23
2022-12-13T09:37:32.495Z,13.52
2022-12-13T09:40:26.310Z,13.45
2022-12-13T09:43:31.828Z,16.52
2022-12-13T09:46:34.838Z,13.98
2022-12-13T09:49:35.682Z,14.20
2022-12-13T09:52:25.723Z,15.48
2022-12-13T09:55:30.747Z,13.20
2022-12-13T09:58:34.953Z,13.48
2022-12-13T10:01:22.505Z,18.35
2022-12-13T10:04:13.879Z,15.88
2022-12-13T10:07:00.270Z,17.85
2022-12-13T10:09:46.510Z,16.98
2022-12-13T10:12:37.662Z,16.50
2022-12-13T10:15:25.615Z,17.10
2022-12-13T10:18:19.087Z,19.13
2022-12-13T10:21:10.554Z,17.73
2022-12-13T10:24:33.011Z,19.02
2022-12-13T10:27:33.619Z,19.50
2022-12-13T10:30:28.767Z,17.75
2022-12-13T10:33:32.585Z,16.13
2022-12-13T10:36:34.879Z,13.93
2022-12-13T10:39:42.277Z,11.13
2022-12-13T10:42:33.895Z,11.25
2022-12-13T10:45:28.116Z,10.15
2022-12-13T10:48:24.139Z,11.02
2022-12-13T10:51:12.995Z,10.98
2022-12-13T10:54:00.793Z,11.35
2022-12-13T10:56:53.974Z,10.80
2022-12-13T10:59:44.156Z,10.38
2022-12-13T11:02:30.523Z,10.20
2022-12-13T11:05:28.797Z,12.18
2022-12-13T11:08:26.467Z,11.43
2022-12-13T11:11:16.752Z,11.50
2022-12-13T11:14:03.917Z,11.00
2022-12-13T11:16:54.596Z,11.25
2022-12-13T11:19:46.494Z,11.82
2022-12-13T11:22:37.484Z,10.98
2022-12-13T11:25:31.815Z,12.57
2022-12-13T11:31:36.701Z,12.43
2022-12-13T11:34:25.714Z,13.10
2022-12-13T11:37:21.192Z,13.50
2022-12-13T11:40:21.620Z,12.63
2022-12-13T11:43:21.202Z,13.25
2022-12-13T11:46:19.419Z,12.48
2022-12-13T11:49:17.989Z,13.90
2022-12-13T11:52:16.026Z,13.30
2022-12-13T11:55:10.374Z,13.13
2022-12-13T11:58:11.930Z,11.85
2022-12-13T12:01:09.491Z,12.45
2022-12-13T12:04:12.867Z,12.98
2022-12-13T12:07:36.029Z,12.50
2022-12-13T12:10:32.184Z,14.13
2022-12-13T12:13:51.114Z,11.73
2022-12-13T12:16:52.372Z,12.02
2022-12-13T12:19:41.228Z,11.55
2022-12-13T12:22:53.003Z,12.63
2022-12-13T12:26:04.422Z,11.98
2022-12-13T12:28:53.683Z,11.90
2022-12-13T12:31:51.000Z,11.98
2022-12-13T12:34:54.055Z,10.30
2022-12-13T12:37:51.634Z,10.65
2022-12-13T12:41:18.015Z,12.13
2022-12-13T12:44:19.200Z,10.32
2022-12-13T12:48:08.933Z,12.15
2022-12-13T12:51:25.993Z,13.00
2022-12-13T12:54:37.407Z,12.50
2022-12-13T12:57:39.586Z,14.18
2022-12-13T13:00:29.505Z,15.20
2022-12-13T13:03:29.849Z,16.33
2022-12-13T13:06:30.012Z,16.40
2022-12-13T13:09:24.576Z,15.52
2022-12-13T13:12:29.075Z,17.15
2022-12-13T13:15:32.430Z,18.02
2022-12-13T13:18:49.781Z,18.60
2022-12-13T13:22:01.917Z,17.30
2022-12-13T13:25:00.910Z,14.02
2022-12-13T13:27:48.733Z,12.75
2022-12-13T13:30:35.826Z,12.23
2022-12-13T13:33:49.454Z,12.23
2022-12-13T13:36:42.022Z,12.63
2022-12-13T13:39:28.017Z,11.13
2022-12-13T13:42:13.939Z,13.55
2022-12-13T13:45:03.381Z,12.23
2022-12-13T13:47:58.699Z,11.00
2022-12-13T13:50:59.458Z,12.02
2022-12-13T13:53:51.540Z,11.40
2022-12-13T13:57:22.313Z,12.77
2022-12-13T14:00:17.533Z,13.27
2022-12-13T14:03:36.421Z,12.68
2022-12-13T14:07:01.048Z,14.35
2022-12-13T14:10:13.671Z,13.20
2022-12-13T14:13:21.528Z,15.60
2022-12-13T14:16:45.237Z,15.13
2022-12-13T14:19:56.064Z,14.85
2022-12-13T14:23:12.937Z,14.38
2022-12-13T14:26:24.012Z,14.07
2022-12-13T14:29:17.300Z,14.40
2022-12-13T14:32:38.308Z,16.60
2022-12-13T14:35:27.019Z,16.50
2022-12-13T14:38:24.427Z,16.77
2022-12-13T14:41:19.896Z,16.23
2022-12-13T14:44:19.956Z,16.88
2022-12-13T14:47:08.049Z,19.52
2022-12-13T14:49:55.678Z,18.25
2022-12-13T14:52:43.417Z,18.20
2022-12-13T14:55:32.202Z,19.15
2022-12-13T14:58:22.272Z,17.17
2022-12-13T15:01:29.361Z,19.83
2022-12-13T15:04:24.629Z,18.40
2022-12-13T15:07:28.560Z,19.80
2022-12-13T15:10:21.558Z,19.70
2022-12-13T15:13:07.783Z,19.80
2022-12-13T15:16:00.125Z,19.13
2022-12-13T15:19:04.353Z,21.35
2022-12-13T15:22:17.050Z,20.25
2022-12-13T15:25:02.619Z,21.13
2022-12-13T15:27:52.159Z,20.67
2022-12-13T15:30:39.155Z,21.25
2022-12-13T15:33:34.109Z,19.17
2022-12-13T15:36:25.407Z,18.42
2022-12-13T15:39:15.225Z,18.95
2022-12-13T15:42:04.760Z,20.75
2022-12-13T15:44:55.314Z,20.05
2022-12-13T15:47:45.700Z,19.40
2022-12-13T15:50:38.522Z,19.80
2022-12-13T15:53:28.907Z,19.40
2022-12-13T15:57:04.441Z,19.13
2022-12-13T16:00:07.271Z,16.88
2022-12-13T16:03:09.129Z,16.58
2022-12-13T16:05:57.321Z,19.05
2022-12-13T16:08:49.353Z,20.27
2022-12-13T16:11:42.034Z,17.48
2022-12-13T16:14:49.702Z,18.95
2022-12-13T16:17:36.122Z,16.05
2022-12-13T16:20:23.807Z,17.58
2022-12-13T16:23:10.072Z,18.42
2022-12-13T16:25:56.604Z,17.05
2022-12-13T16:28:42.993Z,16.38
2022-12-13T16:31:36.438Z,16.45
2022-12-13T16:34:26.146Z,16.15
2022-12-13T16:37:26.804Z,16.77
2022-12-13T16:40:23.505Z,17.70
2022-12-13T16:43:17.773Z,16.92
2022-12-13T16:47:10.206Z,17.35
2022-12-13T16:49:19.704Z,17.60
2022-12-13T16:52:07.621Z,17.95
2022-12-13T16:54:53.679Z,17.63
2022-12-13T16:57:39.788Z,23.10
2022-12-13T17:00:27.466Z,21.83
2022-12-13T17:03:14.480Z,22.00
2022-12-13T17:06:01.112Z,24.42
2022-12-13T17:08:47.563Z,26.02
2022-12-13T17:11:35.941Z,25.58
2022-12-13T17:14:22.446Z,23.92
2022-12-13T17:17:15.740Z,25.52
2022-12-13T17:20:11.069Z,28.08
2022-12-13T17:22:57.543Z,32.58
2022-12-13T17:25:43.900Z,42.97
2022-12-13T17:28:29.900Z,39.58
2022-12-13T17:31:16.492Z,36.95
2022-12-13T17:34:04.053Z,34.78
2022-12-13T17:36:50.195Z,34.00
2022-12-13T17:39:36.468Z,30.83
2022-12-13T17:42:22.831Z,27.67
2022-12-13T17:45:09.368Z,27.80
2022-12-13T17:48:04.899Z,27.13
2022-12-13T17:50:54.811Z,26.42
2022-12-13T17:53:42.780Z,25.77
2022-12-13T17:56:29.092Z,24.95
2022-12-13T17:59:15.598Z,24.83
2022-12-13T18:02:06.476Z,27.80
2022-12-13T18:04:53.013Z,29.52
2022-12-13T18:07:39.999Z,34.05
2022-12-13T18:10:29.771Z,33.13
2022-12-13T18:13:16.879Z,32.33
2022-12-13T18:16:07.973Z,34.00
2022-12-13T18:18:58.788Z,31.27
2022-12-13T18:21:46.472Z,31.90
2022-12-13T18:24:39.077Z,31.30
2022-12-13T18:27:25.331Z,30.92
2022-12-13T18:30:12.112Z,34.88
2022-12-13T18:32:59.103Z,37.42
2022-12-13T18:35:44.926Z,34.38
2022-12-13T18:38:36.465Z,34.55
2022-12-13T18:41:27.837Z,34.97
2022-12-13T18:44:14.089Z,34.40
2022-12-13T18:46:59.987Z,34.95
2022-12-13T18:49:55.010Z,33.60
2022-12-13T18:52:43.258Z,32.15
2022-12-13T18:55:29.976Z,34.97
2022-12-13T18:58:17.250Z,34.67
2022-12-13T19:01:05.257Z,39.50
2022-12-13T19:03:51.213Z,38.35
2022-12-13T19:06:37.214Z,39.75
2022-12-13T19:09:25.667Z,38.65
2022-12-13T19:12:12.140Z,41.03
2022-12-13T19:14:59.397Z,41.22
2022-12-13T19:17:46.662Z,46.20
2022-12-13T19:20:32.937Z,44.78
2022-12-13T19:23:19.312Z,42.92
2022-12-13T19:26:10.684Z,39.85
2022-12-13T19:28:58.411Z,41.05
2022-12-13T19:31:44.524Z,36.28
2022-12-13T19:34:30.432Z,36.70
2022-12-13T19:37:16.785Z,35.88
2022-12-13T19:40:03.823Z,34.45
2022-12-13T19:42:49.680Z,40.70
2022-12-13T19:45:35.724Z,38.67
2022-12-13T19:48:21.578Z,39.92
2022-12-13T19:51:09.705Z,39.65
2022-12-13T19:53:56.033Z,42.53
2022-12-13T19:56:42.307Z,40.42
2022-12-13T19:59:28.585Z,42.70
2022-12-13T20:02:15.115Z,43.22
2022-12-13T20:05:01.764Z,42.97
2022-12-13T20:07:48.008Z,44.47
2022-12-13T20:10:35.805Z,42.47
2022-12-13T20:13:21.911Z,43.22
2022-12-13T20:16:08.452Z,38.35
2022-12-13T20:18:57.594Z,41.22
2022-12-13T20:21:45.238Z,38.85
2022-12-13T20:24:31.295Z,34.80
2022-12-13T20:27:18.671Z,32.90
2022-12-13T20:30:06.390Z,34.47
2022-12-13T20:32:53.930Z,32.17
2022-12-13T20:36:00.695Z,32.20
2022-12-13T20:38:47.566Z,31.85
2022-12-13T20:41:36.253Z,32.70
2022-12-13T20:44:22.505Z,30.15
2022-12-13T20:47:08.796Z,27.60
2022-12-13T20:49:55.342Z,28.70
2022-12-13T20:52:41.915Z,26.58
2022-12-13T20:55:30.082Z,30.90
2022-12-13T20:58:16.129Z,32.63
2022-12-13T21:01:01.869Z,29.85
2022-12-13T21:03:47.910Z,32.03
2022-12-13T21:06:36.168Z,31.98
2022-12-13T21:09:22.324Z,31.38
2022-12-13T21:12:08.187Z,31.05
2022-12-13T21:14:54.214Z,31.75
2022-12-13T21:17:41.534Z,31.73
2022-12-13T21:20:27.897Z,29.23
2022-12-13T21:23:14.271Z,28.98
2022-12-13T21:26:01.427Z,26.13
2022-12-13T21:28:47.729Z,26.63
2022-12-13T21:31:35.830Z,28.00
2022-12-13T21:34:22.358Z,26.25
2022-12-13T21:37:08.589Z,26.00
2022-12-13T21:39:54.604Z,28.60
2022-12-13T21:42:40.456Z,34.75
2022-12-13T21:45:26.357Z,36.65
2022-12-13T21:48:12.322Z,37.47
2022-12-13T21:50:58.320Z,37.67
2022-12-13T21:53:46.093Z,39.53
2022-12-13T21:56:50.853Z,39.40
2022-12-13T21:59:36.771Z,36.90
2022-12-13T22:02:22.881Z,33.53
2022-12-13T22:05:10.478Z,27.30
2022-12-13T22:07:56.257Z,25.75
2022-12-13T22:11:02.250Z,26.60
2022-12-13T22:13:49.059Z,25.65
2022-12-13T22:16:35.260Z,23.77
2022-12-13T22:19:21.157Z,24.90
2022-12-13T22:22:08.012Z,22.42
2022-12-13T22:24:54.304Z,23.38
2022-12-13T22:27:41.095Z,25.85
2022-12-13T22:30:26.982Z,22.83
2022-12-13T22:33:12.925Z,23.05
2022-12-13T22:36:01.215Z,24.90
2022-12-13T22:38:49.213Z,22.50
2022-12-13T22:41:35.506Z,24.00
2022-12-13T22:44:21.555Z,22.15
2022-12-13T22:47:07.399Z,21.70
2022-12-13T22:49:53.499Z,21.92
2022-12-13T22:52:40.737Z,23.60
2022-12-13T22:55:27.108Z,23.75
2022-12-13T22:58:13.712Z,22.98
2022-12-13T23:01:16.819Z,22.75
2022-12-13T23:04:03.850Z,22.45
2022-12-13T23:06:50.204Z,22.63
2022-12-13T23:09:36.029Z,22.65
2022-12-13T23:12:40.700Z,22.15
2022-12-13T23:15:26.681Z,24.40
2022-12-13T23:18:12.672Z,23.45
2022-12-13T23:20:58.778Z,24.88
2022-12-13T23:23:45.048Z,24.05
2022-12-13T23:26:32.551Z,24.90
2022-12-13T23:29:18.465Z,25.13
2022-12-13T23:32:04.651Z,25.08
2022-12-13T23:34:50.798Z,24.33
2022-12-13T23:37:37.365Z,25.65
2022-12-13T23:40:23.109Z,25.60
2022-12-13T23:43:09.528Z,25.08
2022-12-13T23:45:55.581Z,22.05
2022-12-13T23:48:43.722Z,23.80
2022-12-13T23:51:30.278Z,23.88
2022-12-13T23:54:19.353Z,24.52
2022-12-13T23:57:05.229Z,23.85
2022-12-13T23:59:51.780Z,22.48
